Gardner, Kansas
Current Conditions -  °F | °C
As of 11:03 PM on Friday 19 Dec 2014 (Local Time) from KIXD Reporting Station
Haze Haze  
Wind Chill: -3°   Ceiling: 200
Heat Index:   Visibility: 2.5mi
Dew Point:   Wind: 5mph
Humidity: 100%   Direction: 240°WSW
Pressure: 30.21"   Gusts: NA
Location:  38.81°N, 94.93°W
Report Text: KIXD 200503Z AUTO 24004KT 2 1/2SM BR OVC002 00/00 A3021 RMK AO2 T00000000
Loading
Personal Weather Stations






























Interactive Weather Map New forecast layout! Learn more

10-Day Weather Forecast

Advertisements
Track Severe Weather on mobile